createdAt,value
2022-11-26T00:02:28.618Z,90.00
2022-11-26T00:04:58.452Z,90.00
2022-11-26T00:07:29.003Z,90.10
2022-11-26T00:09:59.315Z,90.10
2022-11-26T00:12:29.787Z,90.00
2022-11-26T00:14:58.028Z,90.10
2022-11-26T00:17:28.002Z,90.00
2022-11-26T00:19:56.067Z,90.10
2022-11-26T00:22:27.413Z,90.10
2022-11-26T00:24:56.556Z,90.10
2022-11-26T00:27:29.445Z,90.10
2022-11-26T00:29:57.596Z,90.10
2022-11-26T00:32:29.037Z,90.10
2022-11-26T00:34:57.577Z,90.10
2022-11-26T00:37:29.309Z,90.10
2022-11-26T00:39:58.792Z,90.10
2022-11-26T00:42:27.563Z,90.10
2022-11-26T00:44:55.631Z,90.10
2022-11-26T00:47:24.241Z,90.10
2022-11-26T00:49:54.177Z,90.10
2022-11-26T00:52:34.836Z,90.10
2022-11-26T00:55:08.772Z,90.10
2022-11-26T00:57:37.721Z,90.10
2022-11-26T01:00:16.230Z,90.00
2022-11-26T01:02:44.868Z,90.10
2022-11-26T01:05:14.526Z,90.00
2022-11-26T01:07:44.001Z,90.00
2022-11-26T01:10:18.362Z,90.00
2022-11-26T01:12:46.951Z,90.00
2022-11-26T01:15:16.164Z,90.00
2022-11-26T01:17:45.185Z,90.00
2022-11-26T01:20:25.605Z,90.00
2022-11-26T01:22:55.369Z,90.00
2022-11-26T01:25:24.500Z,90.00
2022-11-26T01:27:52.728Z,90.00
2022-11-26T01:30:25.037Z,90.00
2022-11-26T01:32:53.501Z,90.00
2022-11-26T01:35:24.115Z,90.00
2022-11-26T01:37:52.213Z,90.00
2022-11-26T01:40:56.586Z,90.00
2022-11-26T01:43:28.132Z,90.00
2022-11-26T01:45:57.917Z,90.00
2022-11-26T01:48:32.161Z,90.00
2022-11-26T01:51:07.668Z,90.00
2022-11-26T01:53:43.389Z,90.00
2022-11-26T01:56:32.851Z,90.00
2022-11-26T01:59:07.812Z,90.00
2022-11-26T02:01:37.107Z,89.90
2022-11-26T02:04:14.007Z,90.00
2022-11-26T02:06:46.436Z,90.00
2022-11-26T02:09:14.882Z,90.00
2022-11-26T02:11:43.737Z,90.00
2022-11-26T02:14:15.802Z,90.00
2022-11-26T02:17:06.068Z,90.00
2022-11-26T02:20:18.817Z,89.90
2022-11-26T02:23:24.095Z,90.00
2022-11-26T02:26:34.366Z,89.90
2022-11-26T02:29:11.781Z,90.00
2022-11-26T02:31:46.853Z,90.00
2022-11-26T02:34:20.603Z,90.00
2022-11-26T02:36:53.319Z,90.00
2022-11-26T02:39:24.340Z,90.00
2022-11-26T02:41:55.098Z,90.00
2022-11-26T02:44:26.509Z,90.00
2022-11-26T02:47:00.795Z,90.00
2022-11-26T02:49:31.066Z,90.10
2022-11-26T02:52:03.548Z,90.10
2022-11-26T02:54:34.697Z,90.10
2022-11-26T02:57:07.226Z,90.00
2022-11-26T02:59:36.923Z,90.00
2022-11-26T03:02:11.147Z,90.00
2022-11-26T03:04:42.622Z,90.00
2022-11-26T03:07:13.043Z,90.00
2022-11-26T03:09:42.958Z,90.10
2022-11-26T03:12:11.124Z,90.10
2022-11-26T03:14:39.917Z,90.10
2022-11-26T03:17:09.545Z,90.00
2022-11-26T03:19:38.115Z,90.10
2022-11-26T03:22:06.220Z,90.00
2022-11-26T03:24:34.824Z,90.00
2022-11-26T03:27:05.829Z,90.00
2022-11-26T03:29:34.614Z,90.00
2022-11-26T03:32:03.241Z,90.00
2022-11-26T03:34:33.009Z,90.00
2022-11-26T03:37:01.586Z,90.00
2022-11-26T03:39:29.734Z,90.00
2022-11-26T03:41:58.307Z,90.00
2022-11-26T03:44:26.440Z,90.00
2022-11-26T03:46:55.043Z,90.00
2022-11-26T03:49:23.190Z,90.00
2022-11-26T03:51:53.156Z,90.00
2022-11-26T03:54:21.246Z,90.00
2022-11-26T03:56:49.893Z,90.00
2022-11-26T03:59:18.464Z,90.00
2022-11-26T04:01:47.161Z,90.00
2022-11-26T04:04:15.279Z,90.00
2022-11-26T04:06:43.906Z,90.00
2022-11-26T04:09:13.853Z,90.00
2022-11-26T04:11:41.949Z,90.00
2022-11-26T04:14:10.533Z,90.00
2022-11-26T04:16:39.021Z,90.00
2022-11-26T04:19:07.166Z,90.00
2022-11-26T04:21:35.723Z,90.00
2022-11-26T04:24:03.861Z,90.00
2022-11-26T04:26:34.030Z,90.00
2022-11-26T04:29:02.639Z,90.00
2022-11-26T04:31:32.006Z,90.00
2022-11-26T04:34:00.135Z,90.00
2022-11-26T04:36:28.860Z,90.00
2022-11-26T04:38:58.085Z,90.10
2022-11-26T04:41:26.563Z,90.10
2022-11-26T04:43:56.341Z,90.10
2022-11-26T04:46:24.598Z,90.10
2022-11-26T04:48:53.217Z,90.20
2022-11-26T04:51:21.377Z,90.10
2022-11-26T04:53:51.416Z,90.10
2022-11-26T04:56:23.351Z,90.10
2022-11-26T04:58:51.539Z,90.10
2022-11-26T05:01:21.432Z,90.10
2022-11-26T05:03:49.561Z,90.00
2022-11-26T05:06:17.699Z,90.00
2022-11-26T05:08:46.252Z,90.00
2022-11-26T05:11:14.399Z,90.00
2022-11-26T05:13:43.363Z,90.00
2022-11-26T05:16:11.728Z,90.00
2022-11-26T05:18:41.748Z,90.00
2022-11-26T05:21:09.833Z,90.00
2022-11-26T05:23:38.046Z,90.00
2022-11-26T05:26:06.483Z,90.00
2022-11-26T05:28:34.615Z,90.00
2022-11-26T05:31:05.154Z,90.00
2022-11-26T05:33:33.395Z,90.00
2022-11-26T05:36:03.456Z,90.30
2022-11-26T05:38:31.625Z,89.80
2022-11-26T05:40:59.742Z,89.90
2022-11-26T05:43:28.651Z,89.80
2022-11-26T05:45:56.851Z,89.90
2022-11-26T05:48:25.424Z,89.90
2022-11-26T05:50:58.766Z,89.90
2022-11-26T05:53:29.283Z,90.00
2022-11-26T05:55:58.050Z,90.00
2022-11-26T05:58:26.144Z,90.00
2022-11-26T06:00:55.155Z,90.00
2022-11-26T06:03:23.970Z,90.00
2022-11-26T06:05:52.162Z,90.00
2022-11-26T06:08:20.580Z,89.80
2022-11-26T06:10:50.002Z,89.80
2022-11-26T06:13:18.198Z,89.80
2022-11-26T06:15:46.378Z,89.90
2022-11-26T06:18:14.473Z,90.00
2022-11-26T06:20:43.100Z,89.90
2022-11-26T06:23:11.352Z,89.80
2022-11-26T06:25:41.791Z,89.90
2022-11-26T06:28:11.451Z,89.90
2022-11-26T06:30:40.010Z,89.90
2022-11-26T06:33:08.095Z,89.90
2022-11-26T06:35:36.674Z,90.00
2022-11-26T06:38:04.900Z,90.00
2022-11-26T06:40:33.703Z,89.90
2022-11-26T06:43:01.787Z,89.80
2022-11-26T06:45:32.126Z,89.80
2022-11-26T06:48:00.784Z,89.70
2022-11-26T06:50:29.008Z,89.70
2022-11-26T06:52:57.295Z,89.70
2022-11-26T06:55:25.332Z,89.90
2022-11-26T06:57:56.294Z,90.00
2022-11-26T07:00:24.561Z,90.00
2022-11-26T07:02:54.524Z,90.00
2022-11-26T07:05:22.709Z,90.00
2022-11-26T07:07:51.327Z,90.00
2022-11-26T07:10:20.265Z,90.00
2022-11-26T07:12:48.802Z,90.00
2022-11-26T07:15:16.939Z,90.00
2022-11-26T07:17:45.511Z,89.90
2022-11-26T07:20:16.250Z,89.80
2022-11-26T07:22:44.420Z,89.80
2022-11-26T07:25:13.106Z,89.70
2022-11-26T07:27:41.367Z,89.70
2022-11-26T07:30:11.300Z,89.90
2022-11-26T07:32:39.983Z,90.00
2022-11-26T07:35:08.898Z,90.00
2022-11-26T07:37:38.906Z,90.00
2022-11-26T07:40:08.930Z,90.10
2022-11-26T07:42:37.209Z,90.20
2022-11-26T07:45:05.853Z,90.30
2022-11-26T07:47:34.288Z,90.20
2022-11-26T07:50:02.946Z,90.20
2022-11-26T07:52:31.119Z,90.30
2022-11-26T07:55:00.553Z,90.30
2022-11-26T07:57:28.714Z,90.30
2022-11-26T07:59:57.581Z,90.30
2022-11-26T08:02:25.786Z,90.30
2022-11-26T08:04:54.372Z,90.30
2022-11-26T08:07:27.699Z,90.20
2022-11-26T08:09:58.304Z,90.20
2022-11-26T08:12:28.469Z,90.20
2022-11-26T08:14:56.535Z,90.20
2022-11-26T08:17:25.206Z,90.10
2022-11-26T08:19:53.307Z,90.10
2022-11-26T08:22:21.409Z,90.00
2022-11-26T08:24:50.329Z,90.00
2022-11-26T08:27:18.890Z,90.00
2022-11-26T08:29:48.385Z,90.00
2022-11-26T08:32:17.042Z,90.00
2022-11-26T08:34:45.153Z,89.90
2022-11-26T08:37:13.300Z,89.90
2022-11-26T08:39:41.927Z,90.00
2022-11-26T08:42:10.489Z,90.00
2022-11-26T08:44:39.486Z,90.10
2022-11-26T08:47:09.972Z,90.10
2022-11-26T08:49:38.688Z,90.20
2022-11-26T08:52:07.028Z,90.20
2022-11-26T08:54:37.884Z,90.20
2022-11-26T08:57:07.878Z,90.20
2022-11-26T08:59:36.575Z,90.10
2022-11-26T09:02:05.395Z,90.10
2022-11-26T09:04:36.598Z,90.10
2022-11-26T09:07:05.703Z,90.40
2022-11-26T09:09:36.619Z,90.00
2022-11-26T09:12:05.491Z,89.90
2022-11-26T09:14:38.666Z,89.70
2022-11-26T09:17:08.361Z,89.90
2022-11-26T09:19:38.575Z,90.00
2022-11-26T09:22:07.296Z,90.00
2022-11-26T09:24:38.712Z,89.80
2022-11-26T09:27:08.275Z,89.80
2022-11-26T09:29:37.071Z,89.80
2022-11-26T09:32:23.526Z,89.90
2022-11-26T09:34:55.170Z,89.90
2022-11-26T09:37:23.466Z,90.00
2022-11-26T09:39:52.044Z,90.00
2022-11-26T09:42:30.796Z,90.00
2022-11-26T09:45:10.434Z,89.70
2022-11-26T09:47:42.273Z,89.70
2022-11-26T09:50:25.316Z,89.70
2022-11-26T09:52:56.662Z,89.50
2022-11-26T09:55:29.273Z,89.50
2022-11-26T09:58:07.750Z,89.50
2022-11-26T10:00:40.655Z,89.60
2022-11-26T10:03:15.843Z,89.30
2022-11-26T10:05:52.138Z,89.20
2022-11-26T10:08:49.097Z,89.40
2022-11-26T10:11:25.359Z,89.30
2022-11-26T10:14:00.289Z,89.40
2022-11-26T10:16:35.807Z,89.30
2022-11-26T10:19:12.687Z,89.40
2022-11-26T10:21:58.569Z,89.40
2022-11-26T10:24:31.455Z,89.40
2022-11-26T10:27:02.655Z,89.30
2022-11-26T10:29:38.893Z,89.30
2022-11-26T10:32:16.065Z,89.10
2022-11-26T10:34:51.011Z,89.10
2022-11-26T10:37:22.106Z,88.90
2022-11-26T10:39:56.792Z,89.00
2022-11-26T10:42:27.323Z,89.00
2022-11-26T10:44:55.828Z,88.90
2022-11-26T10:47:29.896Z,88.80
2022-11-26T10:50:45.916Z,88.90
2022-11-26T10:53:08.141Z,88.60
2022-11-26T10:55:41.215Z,88.70
2022-11-26T10:58:17.644Z,88.80
2022-11-26T11:00:55.062Z,88.80
2022-11-26T11:03:59.348Z,88.90
2022-11-26T11:06:28.556Z,88.90
2022-11-26T11:08:58.543Z,88.90
2022-11-26T11:11:29.048Z,88.90
2022-11-26T11:13:58.814Z,88.90
2022-11-26T11:16:29.718Z,89.00
2022-11-26T11:19:00.600Z,88.90
2022-11-26T11:21:34.974Z,88.90
2022-11-26T11:24:16.611Z,88.90
2022-11-26T11:26:47.116Z,88.80
2022-11-26T11:29:37.867Z,88.90
2022-11-26T11:32:08.078Z,88.60
2022-11-26T11:34:39.254Z,88.60
2022-11-26T11:37:19.660Z,88.60
2022-11-26T11:40:04.815Z,88.60
2022-11-26T11:42:33.533Z,88.40
2022-11-26T11:45:02.690Z,88.40
2022-11-26T11:47:38.080Z,88.60
2022-11-26T11:50:19.841Z,88.50
2022-11-26T11:53:06.946Z,88.40
2022-11-26T11:56:02.276Z,88.30
2022-11-26T11:58:48.621Z,88.30
2022-11-26T12:01:30.204Z,88.20
2022-11-26T12:04:22.503Z,88.10
2022-11-26T12:07:14.722Z,88.00
2022-11-26T12:09:48.254Z,88.00
2022-11-26T12:12:24.454Z,88.10
2022-11-26T12:14:55.720Z,88.10
2022-11-26T12:17:33.162Z,88.20
2022-11-26T12:20:11.029Z,88.10
2022-11-26T12:22:43.939Z,87.90
2022-11-26T12:25:24.210Z,87.90
2022-11-26T12:28:00.225Z,87.70
2022-11-26T12:30:38.521Z,87.70
2022-11-26T12:33:12.323Z,87.70
2022-11-26T12:35:45.498Z,87.60
2022-11-26T12:38:18.124Z,87.50
2022-11-26T12:40:53.019Z,87.60
2022-11-26T12:43:27.763Z,87.60
2022-11-26T12:46:00.850Z,87.60
2022-11-26T12:48:37.667Z,87.70
2022-11-26T12:51:17.744Z,87.70
2022-11-26T12:53:54.070Z,87.70
2022-11-26T12:56:27.940Z,87.70
2022-11-26T12:59:03.654Z,87.50
2022-11-26T13:01:33.235Z,86.70
2022-11-26T13:04:35.514Z,87.20
2022-11-26T13:07:06.881Z,87.00
2022-11-26T13:09:59.616Z,86.20
2022-11-26T13:12:39.480Z,86.10
2022-11-26T13:15:20.008Z,86.40
2022-11-26T13:17:51.742Z,86.50
2022-11-26T13:20:37.744Z,86.50
2022-11-26T13:23:17.820Z,86.40
2022-11-26T13:26:02.269Z,86.40
2022-11-26T13:28:49.238Z,86.40
2022-11-26T13:31:38.414Z,86.20
2022-11-26T13:34:30.931Z,86.30
2022-11-26T13:37:20.988Z,86.40
2022-11-26T13:40:15.503Z,86.00
2022-11-26T13:43:02.921Z,86.20
2022-11-26T13:45:51.614Z,86.10
2022-11-26T13:48:28.387Z,86.20
2022-11-26T13:51:03.243Z,86.50
2022-11-26T13:53:37.196Z,86.60
2022-11-26T13:56:07.619Z,86.40
2022-11-26T13:58:43.746Z,86.10
2022-11-26T14:01:31.596Z,86.10
2022-11-26T14:04:01.410Z,85.30
2022-11-26T14:06:29.661Z,85.70
2022-11-26T14:08:58.561Z,85.70
2022-11-26T14:11:57.124Z,85.70
2022-11-26T14:14:37.261Z,85.80
2022-11-26T14:17:34.934Z,85.70
2022-11-26T14:20:12.581Z,85.10
2022-11-26T14:22:41.232Z,85.30
2022-11-26T14:25:12.650Z,85.50
2022-11-26T14:27:53.134Z,85.20
2022-11-26T14:30:27.357Z,84.90
2022-11-26T14:33:12.891Z,84.90
2022-11-26T14:35:52.717Z,84.70
2022-11-26T14:38:26.605Z,84.80
2022-11-26T14:41:00.519Z,84.80
2022-11-26T14:43:30.005Z,85.00
2022-11-26T14:46:05.302Z,85.30
2022-11-26T14:48:36.995Z,85.20
2022-11-26T14:51:10.017Z,85.20
2022-11-26T14:53:45.110Z,85.10
2022-11-26T14:56:13.335Z,85.30
2022-11-26T14:58:45.856Z,85.40
2022-11-26T15:01:21.253Z,85.50
2022-11-26T15:03:59.049Z,85.90
2022-11-26T15:06:30.426Z,85.80
2022-11-26T15:09:24.977Z,85.80
2022-11-26T15:12:01.885Z,85.50
2022-11-26T15:14:41.343Z,85.90
2022-11-26T15:17:14.368Z,85.90
2022-11-26T15:19:43.876Z,85.80
2022-11-26T15:22:22.703Z,85.90
2022-11-26T15:24:52.422Z,86.00
2022-11-26T15:27:31.729Z,86.00
2022-11-26T15:29:59.939Z,85.90
2022-11-26T15:32:30.456Z,86.10
2022-11-26T15:35:01.420Z,86.40
2022-11-26T15:37:31.475Z,86.30
2022-11-26T15:40:12.187Z,86.40
2022-11-26T15:42:40.940Z,86.50
2022-11-26T15:45:16.345Z,86.50
2022-11-26T15:47:49.481Z,86.60
2022-11-26T15:50:28.009Z,86.60
2022-11-26T15:53:04.539Z,86.70
2022-11-26T15:55:35.773Z,86.80
2022-11-26T15:58:10.340Z,86.80
2022-11-26T16:00:41.031Z,86.80
2022-11-26T16:03:41.518Z,86.70
2022-11-26T16:06:34.644Z,86.90
2022-11-26T16:09:09.155Z,87.00
2022-11-26T16:11:39.630Z,86.90
2022-11-26T16:14:24.957Z,86.90
2022-11-26T16:16:53.838Z,87.10
2022-11-26T16:19:23.545Z,87.10
2022-11-26T16:21:54.141Z,87.10
2022-11-26T16:24:32.260Z,87.20
2022-11-26T16:27:02.450Z,87.30
2022-11-26T16:29:32.635Z,87.30
2022-11-26T16:32:01.462Z,87.30
2022-11-26T16:34:30.125Z,87.30
2022-11-26T16:37:03.023Z,87.70
2022-11-26T16:39:37.652Z,87.60
2022-11-26T16:42:15.581Z,87.50
2022-11-26T16:44:43.746Z,87.50
2022-11-26T16:47:16.999Z,87.40
2022-11-26T16:49:45.082Z,87.60
2022-11-26T16:52:16.025Z,87.70
2022-11-26T16:54:55.818Z,87.80
2022-11-26T16:57:29.041Z,87.60
2022-11-26T17:00:02.048Z,87.70
2022-11-26T17:02:30.867Z,87.80
2022-11-26T17:04:59.483Z,87.80
2022-11-26T17:07:30.549Z,87.60
2022-11-26T17:10:00.337Z,87.80
2022-11-26T17:12:29.063Z,87.90
2022-11-26T17:14:57.739Z,87.90
2022-11-26T17:17:30.181Z,88.00
2022-11-26T17:19:58.486Z,88.00
2022-11-26T17:22:27.024Z,88.10
2022-11-26T17:25:02.862Z,88.20
2022-11-26T17:27:31.470Z,88.30
2022-11-26T17:29:59.528Z,88.20
2022-11-26T17:32:28.089Z,88.20
2022-11-26T17:34:56.675Z,88.00
2022-11-26T17:37:29.149Z,88.00
2022-11-26T17:39:58.535Z,88.10
2022-11-26T17:42:32.156Z,88.20
2022-11-26T17:45:03.490Z,88.20
2022-11-26T17:47:32.147Z,88.40
2022-11-26T17:50:00.785Z,88.40
2022-11-26T17:52:28.958Z,88.40
2022-11-26T17:54:57.587Z,88.50
2022-11-26T17:57:28.366Z,88.40
2022-11-26T18:03:45.019Z,88.20
2022-11-26T18:06:17.174Z,88.20
2022-11-26T18:08:45.515Z,88.10
2022-11-26T18:11:14.856Z,88.20
2022-11-26T18:13:45.739Z,88.40
2022-11-26T18:16:13.929Z,87.50
2022-11-26T18:18:42.554Z,88.00
2022-11-26T18:21:11.760Z,88.00
2022-11-26T18:23:41.389Z,88.00
2022-11-26T18:26:17.329Z,88.00
2022-11-26T18:28:46.838Z,87.80
2022-11-26T18:31:15.043Z,87.70
2022-11-26T18:33:43.177Z,87.80
2022-11-26T18:36:13.113Z,87.60
2022-11-26T18:38:41.235Z,87.60
2022-11-26T18:41:09.857Z,87.40
2022-11-26T18:43:39.931Z,87.40
2022-11-26T18:46:15.963Z,87.60
2022-11-26T18:48:46.334Z,87.80
2022-11-26T18:51:15.636Z,87.90
2022-11-26T18:53:44.739Z,87.80
2022-11-26T18:56:15.017Z,87.60
2022-11-26T18:58:43.690Z,87.30
2022-11-26T19:01:19.300Z,87.10
2022-11-26T19:03:47.514Z,87.00
2022-11-26T19:06:17.850Z,86.90
2022-11-26T19:08:46.688Z,87.10
2022-11-26T19:11:16.964Z,87.30
2022-11-26T19:13:45.392Z,87.50
2022-11-26T19:16:18.215Z,87.50
2022-11-26T19:18:47.052Z,87.60
2022-11-26T19:21:20.890Z,87.60
2022-11-26T19:23:49.367Z,87.70
2022-11-26T19:26:17.896Z,88.50
2022-11-26T19:28:46.458Z,87.60
2022-11-26T19:31:18.660Z,87.80
2022-11-26T19:33:48.235Z,87.80
2022-11-26T19:36:18.047Z,88.00
2022-11-26T19:38:46.676Z,88.00
2022-11-26T19:41:15.711Z,88.00
2022-11-26T19:43:44.236Z,88.10
2022-11-26T19:46:15.879Z,88.20
2022-11-26T19:48:50.854Z,88.20
2022-11-26T19:51:22.325Z,88.10
2022-11-26T19:53:52.390Z,88.20
2022-11-26T19:56:22.771Z,88.20
2022-11-26T19:58:53.874Z,88.20
2022-11-26T20:01:22.782Z,88.10
2022-11-26T20:03:53.435Z,88.20
2022-11-26T20:06:23.141Z,88.30
2022-11-26T20:08:51.985Z,89.00
2022-11-26T20:11:21.327Z,88.00
2022-11-26T20:13:50.903Z,88.10
2022-11-26T20:16:21.558Z,88.20
2022-11-26T20:18:51.653Z,88.10
2022-11-26T20:21:22.286Z,87.90
2022-11-26T20:23:51.739Z,88.60
2022-11-26T20:26:22.887Z,87.60
2022-11-26T20:28:51.330Z,87.70
2022-11-26T20:31:23.634Z,87.70
2022-11-26T20:33:54.564Z,87.90
2022-11-26T20:36:24.120Z,88.00
2022-11-26T20:38:56.038Z,88.00
2022-11-26T20:41:26.845Z,88.10
2022-11-26T20:43:59.189Z,88.10
2022-11-26T20:46:29.185Z,88.20
2022-11-26T20:48:58.983Z,88.10
2022-11-26T20:51:27.586Z,88.00
2022-11-26T20:53:59.758Z,88.00
2022-11-26T20:56:28.733Z,88.10
2022-11-26T20:58:57.645Z,88.10
2022-11-26T21:01:27.885Z,88.00
2022-11-26T21:04:01.525Z,88.10
2022-11-26T21:06:31.470Z,88.10
2022-11-26T21:09:02.364Z,88.10
2022-11-26T21:11:31.487Z,88.00
2022-11-26T21:14:01.963Z,88.00
2022-11-26T21:16:31.341Z,88.10
2022-11-26T21:19:02.096Z,88.30
2022-11-26T21:21:30.950Z,88.10
2022-11-26T21:24:00.006Z,88.10
2022-11-26T21:26:28.420Z,88.00
2022-11-26T21:28:58.397Z,88.00
2022-11-26T21:31:28.296Z,88.00
2022-11-26T21:33:57.941Z,88.00
2022-11-26T21:36:27.996Z,87.80
2022-11-26T21:38:56.719Z,87.90
2022-11-26T21:41:25.610Z,87.90
2022-11-26T21:43:54.560Z,88.00
2022-11-26T21:46:24.695Z,88.10
2022-11-26T21:48:57.518Z,87.90
2022-11-26T21:51:28.850Z,87.90
2022-11-26T21:53:58.827Z,88.10
2022-11-26T21:56:29.077Z,88.00
2022-11-26T21:58:58.965Z,87.90
2022-11-26T22:01:29.940Z,87.90
2022-11-26T22:04:01.597Z,87.90
2022-11-26T22:06:31.320Z,87.90
2022-11-26T22:09:00.162Z,87.90
2022-11-26T22:11:30.529Z,87.90
2022-11-26T22:13:58.950Z,88.10
2022-11-26T22:16:29.089Z,88.20
2022-11-26T22:18:58.107Z,88.20
2022-11-26T22:21:30.405Z,88.10
2022-11-26T22:24:00.896Z,88.00
2022-11-26T22:26:30.314Z,87.90
2022-11-26T22:28:59.066Z,87.80
2022-11-26T22:31:28.838Z,87.90
2022-11-26T22:33:58.615Z,88.00
2022-11-26T22:36:27.032Z,87.70
2022-11-26T22:38:55.588Z,87.40
2022-11-26T22:41:25.339Z,87.20
2022-11-26T22:43:54.248Z,87.20
2022-11-26T22:46:24.200Z,87.20
2022-11-26T22:48:54.536Z,87.30
2022-11-26T22:51:23.627Z,87.10
2022-11-26T22:53:52.746Z,86.40
2022-11-26T22:56:21.344Z,85.80
2022-11-26T22:58:50.992Z,85.50
2022-11-26T23:01:22.065Z,85.40
2022-11-26T23:03:50.896Z,85.10
2022-11-26T23:06:21.064Z,84.80
2022-11-26T23:08:49.726Z,84.70
2022-11-26T23:11:20.282Z,85.00
2022-11-26T23:13:50.782Z,85.20
2022-11-26T23:16:20.670Z,85.30
2022-11-26T23:18:49.561Z,85.60
2022-11-26T23:21:20.212Z,86.00
2022-11-26T23:23:49.571Z,86.30
2022-11-26T23:26:26.141Z,86.40
2022-11-26T23:28:58.142Z,86.30
2022-11-26T23:31:29.386Z,85.90
2022-11-26T23:34:01.949Z,85.70
2022-11-26T23:36:32.639Z,85.80
2022-11-26T23:39:02.254Z,86.30
2022-11-26T23:41:31.131Z,86.50
2022-11-26T23:44:01.338Z,86.50
2022-11-26T23:46:31.367Z,86.50
2022-11-26T23:48:59.910Z,86.50
2022-11-26T23:51:29.814Z,86.60
2022-11-26T23:53:58.743Z,86.70
2022-11-26T23:56:28.871Z,86.70
2022-11-26T23:58:58.805Z,86.70
